Accueil
METAR-TAF:

METAR-TAF

Aéroports :

Base aérienne 118 Mont-de-Marsan

Mont-De-Marsan, France

latitude: 43-55N, longitude: 000-30W, altitude: 62 m

Observation

Le bulletin a été fait il y a 22 minutes, à 15:00 UTC
Vent 4 kt de ouest/sud-ouest, variant entre sud et nord-ouest
Température 14°C
Humidité 55%
Pression 1024 hPa
Visibilité 10 km ou plus
Nuages fragmentés à une hauteur de 4100 ft

METAR: LFBM 281500Z AUTO 25004KT 190V310 9999 BKN041 14/05 Q1024 NOSIG

Heure: 16:22 (15:22 UTC)

Prévision

Le bulletin a été fait il y a 1 heure et 22 minutes, à 14:00 UTC
Prévision valable du 28 à 15 UTC au 29 à 15 UTC
Vent 5 kt de ouest/sud-ouest
Visibilité 10 km ou plus
pas de nuages en-dessous de 1500 mètres et pas de cumulonimbus.
Probabilité 30% :
Temporairement
du 29 à 03 UTC au 29 à 08 UTC
Nuages fragmentés à une hauteur de 500 ft

TAF: LFBM 281400Z 2815/2915 25005KT CAVOK PROB30 TEMPO 2903/2908 BKN005

Observations et prévisions météorologiques de plus de 4000 aéroports (messages METAR et TAF).

Les stations disponibles sont représentées par des disques jaunes et rouges sur la carte.

Passer la souris dessus pour voir le nom de la station.

Cliquer dessus pour voir les observations et prévisions météorologiques.

Pour changer de carte: cliquez sur les boutons verts avec une croix noire pour zoomer, sur le bouton vert avec un tiret pour effectuer un zoom arrière, ou sur les flèches vertes pour les cartes adjacentes.


METAR-TAF: